createdAt,value
2019-04-20T00:01:44.905Z,8.40
2019-04-20T00:04:20.501Z,8.27
2019-04-20T00:06:48.541Z,7.03
2019-04-20T00:09:19.348Z,10.67
2019-04-20T00:11:53.565Z,7.10
2019-04-20T00:14:21.900Z,10.40
2019-04-20T00:16:44.563Z,8.93
2019-04-20T00:19:15.340Z,10.03
2019-04-20T00:21:52.705Z,10.00
2019-04-20T00:24:27.572Z,9.40
2019-04-20T00:27:13.687Z,7.70
2019-04-20T00:29:40.712Z,7.40
2019-04-20T00:32:02.569Z,10.53
2019-04-20T00:34:30.071Z,10.03
2019-04-20T00:36:56.342Z,13.03
2019-04-20T00:39:25.873Z,8.50
2019-04-20T00:42:00.424Z,8.40
2019-04-20T00:44:30.383Z,10.00
2019-04-20T00:47:08.527Z,7.77
2019-04-20T00:49:38.813Z,8.70
2019-04-20T00:52:24.289Z,12.00
2019-04-20T00:54:28.471Z,8.60
2019-04-20T00:57:11.817Z,8.70
2019-04-20T00:59:42.882Z,7.90
2019-04-20T01:02:14.056Z,10.90
2019-04-20T01:04:50.452Z,10.80
2019-04-20T01:07:17.678Z,8.53
2019-04-20T01:09:51.968Z,12.00
2019-04-20T01:12:25.918Z,16.70
2019-04-20T01:14:55.993Z,11.67
2019-04-20T01:17:20.678Z,12.73
2019-04-20T01:19:52.705Z,18.90
2019-04-20T01:22:22.405Z,25.03
2019-04-20T01:24:51.576Z,15.50
2019-04-20T01:27:32.190Z,12.90
2019-04-20T01:30:00.568Z,13.77
2019-04-20T01:32:31.103Z,18.90
2019-04-20T01:34:58.597Z,28.30
2019-04-20T01:37:32.827Z,20.13
2019-04-20T01:39:55.449Z,16.37
2019-04-20T01:42:21.388Z,11.30
2019-04-20T01:44:52.432Z,17.90
2019-04-20T01:47:23.895Z,21.20
2019-04-20T01:49:59.858Z,22.07
2019-04-20T01:52:27.010Z,17.27
2019-04-20T01:55:24.495Z,21.47
2019-04-20T01:58:00.424Z,20.60
2019-04-20T02:00:35.209Z,18.13
2019-04-20T02:03:22.857Z,22.03
2019-04-20T02:05:56.443Z,13.23
2019-04-20T02:08:21.462Z,18.77
2019-04-20T02:10:53.674Z,12.10
2019-04-20T02:13:19.576Z,16.80
2019-04-20T02:15:54.123Z,19.83
2019-04-20T02:18:31.826Z,17.13
2019-04-20T02:21:05.161Z,13.90
2019-04-20T02:23:31.793Z,18.83
2019-04-20T02:25:50.068Z,15.63
2019-04-20T02:28:38.281Z,17.07
2019-04-20T02:31:24.831Z,15.80
2019-04-20T02:33:59.220Z,16.07
2019-04-20T02:36:47.869Z,13.67
2019-04-20T02:41:43.998Z,14.30
2019-04-20T02:44:17.993Z,14.10
2019-04-20T02:46:43.002Z,14.97
2019-04-20T02:49:17.595Z,14.20
2019-04-20T02:51:41.159Z,12.33
2019-04-20T02:54:17.039Z,11.50
2019-04-20T02:56:40.261Z,13.17
2019-04-20T02:59:25.031Z,11.33
2019-04-20T03:01:29.412Z,10.70
2019-04-20T03:03:44.975Z,10.17
2019-04-20T03:06:20.739Z,10.10
2019-04-20T03:09:06.332Z,9.77
2019-04-20T03:11:44.208Z,10.23
2019-04-20T03:13:59.386Z,8.40
2019-04-20T03:16:25.185Z,9.73
2019-04-20T03:18:57.402Z,11.73
2019-04-20T03:21:33.448Z,12.13
2019-04-20T03:24:08.394Z,9.80
2019-04-20T03:26:36.820Z,11.20
2019-04-20T03:29:18.860Z,8.13
2019-04-20T03:35:03.320Z,9.70
2019-04-20T03:37:10.913Z,8.27
2019-04-20T03:39:28.500Z,9.73
2019-04-20T03:41:48.266Z,16.60
2019-04-20T03:44:17.643Z,12.77
2019-04-20T03:46:51.560Z,8.00
2019-04-20T03:49:37.982Z,8.67
2019-04-20T03:52:02.760Z,7.47
2019-04-20T03:54:30.828Z,8.33
2019-04-20T03:57:15.634Z,9.20
2019-04-20T03:59:44.642Z,8.47
2019-04-20T04:05:06.246Z,8.40
2019-04-20T04:07:28.289Z,8.43
2019-04-20T04:10:06.962Z,8.37
2019-04-20T04:12:56.796Z,9.40
2019-04-20T04:15:25.436Z,8.90
2019-04-20T04:17:57.932Z,8.40
2019-04-20T04:20:33.251Z,9.80
2019-04-20T04:23:10.364Z,9.13
2019-04-20T04:25:35.560Z,9.30
2019-04-20T04:28:10.801Z,8.43
2019-04-20T04:30:36.596Z,9.87
2019-04-20T04:35:38.791Z,11.73
2019-04-20T04:38:12.660Z,10.10
2019-04-20T04:40:56.709Z,9.03
2019-04-20T04:43:16.040Z,10.30
2019-04-20T04:45:28.523Z,11.63
2019-04-20T04:47:57.698Z,9.43
2019-04-20T04:50:28.613Z,7.93
2019-04-20T04:53:04.662Z,10.10
2019-04-20T04:55:37.056Z,9.20
2019-04-20T04:57:58.138Z,12.77
2019-04-20T05:00:31.221Z,8.30
2019-04-20T05:03:07.008Z,11.10
2019-04-20T05:05:55.921Z,9.40
2019-04-20T05:08:15.430Z,9.57
2019-04-20T05:10:37.014Z,9.53
2019-04-20T05:13:05.568Z,11.43
2019-04-20T05:15:48.429Z,16.00
2019-04-20T05:18:32.142Z,9.43
2019-04-20T05:20:59.094Z,11.83
2019-04-20T05:23:30.264Z,10.10
2019-04-20T05:26:08.489Z,11.00
2019-04-20T05:28:30.508Z,10.60
2019-04-20T05:30:54.979Z,12.80
2019-04-20T05:33:27.798Z,11.10
2019-04-20T05:36:16.348Z,10.50
2019-04-20T05:38:50.375Z,11.03
2019-04-20T05:41:09.935Z,9.67
2019-04-20T05:43:41.706Z,11.87
2019-04-20T05:46:16.936Z,13.53
2019-04-20T05:48:48.751Z,12.27
2019-04-20T05:51:21.164Z,11.63
2019-04-20T05:53:50.351Z,10.13
2019-04-20T05:56:20.338Z,14.10
2019-04-20T05:58:53.591Z,10.40
2019-04-20T06:01:25.868Z,13.07
2019-04-20T06:03:49.028Z,12.23
2019-04-20T06:06:23.477Z,20.73
2019-04-20T06:08:59.942Z,13.10
2019-04-20T06:11:21.181Z,14.07
2019-04-20T06:13:50.721Z,11.47
2019-04-20T06:19:33.180Z,13.07
2019-04-20T06:22:03.344Z,10.67
2019-04-20T06:24:55.321Z,12.83
2019-04-20T06:27:06.246Z,14.57
2019-04-20T06:29:39.031Z,15.73
2019-04-20T06:32:10.873Z,17.30
2019-04-20T06:34:49.023Z,16.87
2019-04-20T06:37:04.115Z,14.67
2019-04-20T06:39:38.617Z,13.50
2019-04-20T06:42:14.046Z,15.90
2019-04-20T06:44:34.360Z,11.90
2019-04-20T06:47:11.682Z,13.43
2019-04-20T06:49:38.432Z,11.50
2019-04-20T06:52:17.165Z,17.90
2019-04-20T06:54:54.110Z,26.10
2019-04-20T06:57:31.314Z,21.47
2019-04-20T07:00:03.763Z,19.60
2019-04-20T07:04:59.974Z,20.23
2019-04-20T07:07:29.772Z,26.33
2019-04-20T07:10:12.123Z,15.83
2019-04-20T07:12:27.552Z,11.67
2019-04-20T07:14:53.002Z,16.33
2019-04-20T07:17:43.808Z,12.40
2019-04-20T07:20:00.266Z,13.33
2019-04-20T07:22:53.874Z,15.67
2019-04-20T07:25:07.966Z,17.13
2019-04-20T07:27:36.866Z,17.20
2019-04-20T07:30:07.837Z,19.10
2019-04-20T07:32:44.278Z,35.03
2019-04-20T07:35:08.790Z,23.83
2019-04-20T07:38:03.304Z,13.80
2019-04-20T07:40:10.455Z,13.23
2019-04-20T07:42:40.697Z,10.43
2019-04-20T07:45:16.451Z,14.20
2019-04-20T07:48:01.437Z,50.60
2019-04-20T07:50:08.734Z,15.13
2019-04-20T07:52:33.818Z,9.83
2019-04-20T07:55:35.191Z,9.90
2019-04-20T07:57:39.070Z,12.40
2019-04-20T08:00:13.722Z,16.90
2019-04-20T08:02:48.798Z,11.73
2019-04-20T08:05:27.844Z,13.70
2019-04-20T08:07:53.387Z,13.90
2019-04-20T08:10:32.439Z,9.20
2019-04-20T08:13:10.711Z,11.27
2019-04-20T08:15:46.144Z,9.60
2019-04-20T08:18:16.414Z,13.67
2019-04-20T08:20:43.904Z,14.63
2019-04-20T08:23:14.305Z,11.40
2019-04-20T08:25:30.607Z,7.73
2019-04-20T08:28:16.747Z,9.13
2019-04-20T08:31:06.332Z,11.93
2019-04-20T08:33:55.026Z,9.07
2019-04-20T08:36:16.718Z,17.10
2019-04-20T08:41:12.871Z,14.60
2019-04-20T08:43:57.419Z,9.00
2019-04-20T08:46:20.702Z,10.57
2019-04-20T08:48:53.523Z,8.37
2019-04-20T08:51:19.986Z,6.50
2019-04-20T08:53:51.759Z,15.73
2019-04-20T08:56:14.232Z,9.37
2019-04-20T08:58:33.940Z,18.77
2019-04-20T09:01:05.605Z,13.20
2019-04-20T09:03:47.538Z,8.10
2019-04-20T09:06:14.541Z,9.90
2019-04-20T09:08:46.596Z,8.77
2019-04-20T09:11:19.727Z,7.67
2019-04-20T09:13:42.488Z,8.87
2019-04-20T09:16:04.803Z,8.80
2019-04-20T09:18:44.347Z,8.27
2019-04-20T09:21:13.674Z,7.97
2019-04-20T09:23:58.026Z,8.93
2019-04-20T09:26:27.046Z,6.40
2019-04-20T09:29:01.673Z,7.20
2019-04-20T09:31:34.092Z,8.10
2019-04-20T09:34:13.046Z,7.50
2019-04-20T09:39:24.655Z,6.20
2019-04-20T09:42:00.902Z,11.77
2019-04-20T09:44:24.549Z,8.40
2019-04-20T09:46:56.342Z,5.10
2019-04-20T09:49:37.747Z,8.00
2019-04-20T09:52:06.839Z,10.30
2019-04-20T09:54:39.981Z,11.03
2019-04-20T09:57:13.770Z,7.00
2019-04-20T09:59:44.803Z,11.57
2019-04-20T10:02:04.550Z,10.47
2019-04-20T10:04:23.950Z,6.27
2019-04-20T10:06:52.597Z,6.93
2019-04-20T10:09:29.529Z,11.20
2019-04-20T10:11:51.234Z,7.23
2019-04-20T10:14:20.048Z,7.90
2019-04-20T10:16:49.732Z,7.27
2019-04-20T10:19:24.859Z,7.53
2019-04-20T10:21:48.696Z,12.20
2019-04-20T10:24:17.118Z,8.50
2019-04-20T10:26:45.543Z,12.03
2019-04-20T10:29:15.362Z,11.70
2019-04-20T10:31:52.693Z,8.23
2019-04-20T10:34:14.109Z,6.50
2019-04-20T10:36:47.904Z,10.03
2019-04-20T10:39:18.433Z,11.27
2019-04-20T10:41:53.532Z,17.00
2019-04-20T10:44:17.237Z,7.63
2019-04-20T10:46:46.947Z,8.17
2019-04-20T10:49:15.534Z,6.40
2019-04-20T10:51:44.041Z,10.27
2019-04-20T10:54:12.537Z,10.40
2019-04-20T10:56:41.472Z,8.90
2019-04-20T10:59:10.036Z,11.90
2019-04-20T11:01:38.476Z,8.97
2019-04-20T11:04:08.355Z,7.23
2019-04-20T11:06:38.569Z,7.13
2019-04-20T11:09:08.930Z,7.67
2019-04-20T11:11:38.682Z,12.90
2019-04-20T11:14:14.500Z,5.20
2019-04-20T11:16:38.251Z,5.73
2019-04-20T11:19:07.419Z,5.57
2019-04-20T11:21:36.524Z,6.40
2019-04-20T11:24:05.230Z,6.23
2019-04-20T11:26:36.597Z,7.93
2019-04-20T11:29:04.230Z,7.40
2019-04-20T11:31:39.109Z,4.57
2019-04-20T11:34:03.895Z,4.93
2019-04-20T11:36:32.977Z,7.80
2019-04-20T11:39:02.921Z,7.97
2019-04-20T11:41:34.011Z,8.00
2019-04-20T11:44:02.044Z,6.20
2019-04-20T11:46:30.592Z,9.13
2019-04-20T11:48:59.474Z,5.40
2019-04-20T11:51:27.986Z,6.37
2019-04-20T11:53:56.550Z,7.67
2019-04-20T11:56:31.445Z,9.90
2019-04-20T11:58:55.135Z,20.90
2019-04-20T12:01:35.017Z,8.97
2019-04-20T12:04:03.977Z,9.30
2019-04-20T12:06:28.921Z,6.57
2019-04-20T12:08:58.965Z,8.60
2019-04-20T12:11:38.412Z,9.13
2019-04-20T12:13:58.665Z,9.53
2019-04-20T12:16:27.855Z,6.73
2019-04-20T12:18:56.743Z,11.23
2019-04-20T12:21:26.476Z,7.00
2019-04-20T12:23:56.192Z,12.13
2019-04-20T12:26:24.978Z,10.70
2019-04-20T12:28:53.872Z,11.30
2019-04-20T12:31:24.750Z,8.70
2019-04-20T12:33:52.641Z,8.87
2019-04-20T12:36:21.146Z,10.80
2019-04-20T12:38:50.903Z,9.20
2019-04-20T12:41:31.119Z,8.63
2019-04-20T12:43:49.863Z,8.90
2019-04-20T12:46:21.427Z,11.60
2019-04-20T12:48:49.372Z,8.17
2019-04-20T12:51:17.904Z,8.20
2019-04-20T12:53:46.702Z,9.30
2019-04-20T12:56:16.811Z,7.90
2019-04-20T12:58:45.513Z,8.20
2019-04-20T13:01:14.624Z,10.57
2019-04-20T13:03:45.571Z,9.57
2019-04-20T13:06:14.635Z,8.77
2019-04-20T13:08:49.898Z,8.20
2019-04-20T13:11:16.205Z,8.80
2019-04-20T13:13:56.534Z,9.07
2019-04-20T13:16:30.381Z,9.37
2019-04-20T13:19:01.543Z,12.47
2019-04-20T13:21:31.201Z,10.17
2019-04-20T13:24:00.880Z,14.33
2019-04-20T13:26:29.520Z,8.03
2019-04-20T13:28:59.378Z,11.70
2019-04-20T13:31:27.910Z,7.00
2019-04-20T13:33:57.201Z,13.63
2019-04-20T13:36:26.180Z,8.00
2019-04-20T13:38:54.618Z,11.20
2019-04-20T13:41:24.122Z,12.37
2019-04-20T13:43:54.831Z,10.00
2019-04-20T13:46:22.987Z,11.07
2019-04-20T13:48:51.526Z,12.00
2019-04-20T13:51:21.026Z,9.33
2019-04-20T13:53:50.775Z,10.53
2019-04-20T13:56:21.766Z,9.97
2019-04-20T13:58:51.958Z,8.37
2019-04-20T14:01:39.015Z,10.70
2019-04-20T14:04:12.684Z,11.30
2019-04-20T14:06:41.822Z,10.57
2019-04-20T14:09:11.843Z,11.27
2019-04-20T14:11:41.414Z,16.40
2019-04-20T14:14:10.856Z,12.67
2019-04-20T14:16:39.444Z,8.57
2019-04-20T14:19:09.193Z,7.40
2019-04-20T14:21:38.464Z,9.30
2019-04-20T14:24:08.773Z,8.03
2019-04-20T14:26:40.349Z,9.87
2019-04-20T14:29:07.642Z,9.37
2019-04-20T14:31:37.427Z,9.37
2019-04-20T14:34:06.854Z,8.40
2019-04-20T14:36:37.021Z,8.40
2019-04-20T14:39:07.897Z,11.33
2019-04-20T14:41:36.401Z,8.57
2019-04-20T14:44:05.803Z,8.73
2019-04-20T14:46:35.751Z,8.60
2019-04-20T14:49:04.919Z,9.23
2019-04-20T14:51:33.679Z,14.13
2019-04-20T14:54:03.264Z,10.93
2019-04-20T14:56:31.794Z,9.67
2019-04-20T14:59:05.279Z,13.73
2019-04-20T15:01:44.947Z,9.83
2019-04-20T15:04:17.993Z,8.00
2019-04-20T15:06:44.456Z,15.97
2019-04-20T15:09:13.098Z,11.03
2019-04-20T15:11:44.267Z,9.33
2019-04-20T15:14:11.672Z,11.30
2019-04-20T15:16:40.400Z,8.30
2019-04-20T15:19:11.798Z,11.70
2019-04-20T15:21:42.104Z,7.77
2019-04-20T15:24:11.351Z,6.80
2019-04-20T15:26:40.446Z,9.80
2019-04-20T15:29:10.383Z,7.43
2019-04-20T15:31:39.098Z,10.40
2019-04-20T15:34:08.833Z,12.40
2019-04-20T15:36:38.166Z,10.60
2019-04-20T15:39:07.557Z,11.03
2019-04-20T15:41:36.003Z,8.53
2019-04-20T15:44:04.785Z,10.60
2019-04-20T15:46:34.741Z,17.30
2019-04-20T15:49:04.080Z,8.03
2019-04-20T15:51:34.150Z,10.63
2019-04-20T15:54:02.763Z,12.53
2019-04-20T15:56:31.167Z,12.30
2019-04-20T15:58:59.601Z,7.60
2019-04-20T16:01:30.304Z,11.70
2019-04-20T16:04:01.528Z,9.83
2019-04-20T16:06:31.569Z,20.23
2019-04-20T16:09:02.102Z,12.00
2019-04-20T16:11:31.052Z,8.23
2019-04-20T16:14:00.184Z,15.63
2019-04-20T16:16:31.949Z,8.57
2019-04-20T16:19:04.032Z,9.20
2019-04-20T16:21:33.953Z,11.30
2019-04-20T16:24:02.382Z,23.23
2019-04-20T16:26:33.503Z,8.73
2019-04-20T16:29:03.716Z,9.17
2019-04-20T16:31:32.738Z,12.60
2019-04-20T16:34:01.264Z,15.47
2019-04-20T16:36:30.499Z,11.30
2019-04-20T16:38:59.520Z,13.93
2019-04-20T16:41:28.426Z,11.23
2019-04-20T16:43:57.467Z,8.90
2019-04-20T16:46:26.095Z,9.00
2019-04-20T16:48:54.958Z,11.60
2019-04-20T16:51:25.163Z,8.20
2019-04-20T16:53:54.014Z,13.53
2019-04-20T16:56:22.586Z,10.73
2019-04-20T16:58:57.256Z,12.10
2019-04-20T17:01:21.591Z,15.27
2019-04-20T17:04:01.050Z,8.30
2019-04-20T17:06:22.195Z,8.67
2019-04-20T17:08:51.333Z,8.90
2019-04-20T17:11:19.945Z,8.33
2019-04-20T17:13:52.761Z,13.87
2019-04-20T17:19:41.541Z,9.60
2019-04-20T17:35:00.513Z,9.33
2019-04-20T17:37:15.889Z,20.33
2019-04-20T17:46:02.747Z,11.87
2019-04-20T17:48:37.186Z,9.30
2019-04-20T17:51:20.760Z,10.40
2019-04-20T17:53:37.424Z,11.47
2019-04-20T17:56:02.361Z,12.73
2019-04-20T17:58:34.431Z,11.80
2019-04-20T18:01:08.680Z,10.57
2019-04-20T18:06:27.729Z,12.10
2019-04-20T18:08:59.880Z,10.20
2019-04-20T18:11:21.368Z,10.30
2019-04-20T18:13:47.827Z,9.97
2019-04-20T18:16:41.835Z,11.40
2019-04-20T18:19:05.671Z,14.30
2019-04-20T18:21:43.549Z,8.77
2019-04-20T18:24:24.009Z,15.67
2019-04-20T18:26:59.654Z,11.07
2019-04-20T18:29:32.680Z,16.33
2019-04-20T18:31:44.352Z,12.30
2019-04-20T18:34:23.717Z,14.63
2019-04-20T18:36:51.576Z,14.80
2019-04-20T18:39:30.516Z,12.40
2019-04-20T18:42:01.206Z,16.53
2019-04-20T18:44:32.373Z,22.90
2019-04-20T18:47:26.433Z,24.67
2019-04-20T19:13:22.366Z,13.43
2019-04-20T19:16:16.564Z,19.93
2019-04-20T19:19:04.370Z,21.23
2019-04-20T19:21:29.564Z,14.93
2019-04-20T19:24:06.526Z,15.33
2019-04-20T19:26:28.648Z,15.67
2019-04-20T19:29:12.005Z,21.70
2019-04-20T19:31:44.774Z,38.67
2019-04-20T19:34:18.562Z,19.17
2019-04-20T19:36:36.778Z,18.07
2019-04-20T19:39:15.125Z,22.13
2019-04-20T19:41:41.795Z,19.43
2019-04-20T19:44:13.091Z,31.93
2019-04-20T19:46:48.254Z,33.63
2019-04-20T19:49:16.636Z,24.70
2019-04-20T19:51:55.155Z,19.63
2019-04-20T19:54:25.492Z,15.83
2019-04-20T19:56:47.037Z,17.40
2019-04-20T19:59:11.163Z,17.60
2019-04-20T20:01:31.687Z,16.80
2019-04-20T20:04:04.003Z,22.00
2019-04-20T20:06:39.133Z,18.77
2019-04-20T20:09:05.817Z,18.33
2019-04-20T20:11:40.450Z,20.00
2019-04-20T20:14:10.975Z,18.70
2019-04-20T20:17:02.685Z,14.07
2019-04-20T20:19:29.538Z,20.40
2019-04-20T20:22:00.365Z,42.50
2019-04-20T20:24:17.997Z,18.27
2019-04-20T20:26:53.367Z,21.33
2019-04-20T20:29:28.388Z,31.70
2019-04-20T20:32:05.027Z,23.50
2019-04-20T20:34:28.583Z,16.97
2019-04-20T20:36:59.835Z,28.10
2019-04-20T20:39:27.725Z,21.00
2019-04-20T20:42:01.686Z,16.70
2019-04-20T20:44:37.276Z,16.50
2019-04-20T20:47:05.832Z,30.80
2019-04-20T20:49:48.609Z,23.40
2019-04-20T20:52:14.548Z,16.43
2019-04-20T20:54:40.517Z,20.00
2019-04-20T20:57:02.820Z,16.23
2019-04-20T20:59:34.762Z,27.47
2019-04-20T21:02:04.401Z,39.30
2019-04-20T21:04:25.769Z,23.80
2019-04-20T21:06:54.899Z,24.10
2019-04-20T21:09:25.457Z,23.87
2019-04-20T21:12:00.895Z,27.17
2019-04-20T21:14:27.893Z,23.47
2019-04-20T21:17:02.759Z,25.47
2019-04-20T21:19:45.193Z,21.90
2019-04-20T21:22:02.986Z,27.23
2019-04-20T21:24:27.274Z,23.50
2019-04-20T21:27:01.620Z,17.73
2019-04-20T21:29:33.793Z,19.63
2019-04-20T21:32:03.371Z,23.70
2019-04-20T21:34:27.353Z,19.03
2019-04-20T21:37:03.497Z,18.30
2019-04-20T21:39:37.086Z,19.80
2019-04-20T21:42:04.369Z,18.47
2019-04-20T21:44:31.712Z,25.70
2019-04-20T21:46:58.223Z,30.43
2019-04-20T21:49:43.974Z,24.77
2019-04-20T21:52:01.695Z,24.10
2019-04-20T21:54:27.798Z,22.63
2019-04-20T21:57:01.653Z,20.53
2019-04-20T21:59:34.610Z,18.60
2019-04-20T22:02:09.875Z,18.37
2019-04-20T22:04:29.132Z,20.00
2019-04-20T22:06:58.302Z,21.00
2019-04-20T22:09:34.507Z,17.90
2019-04-20T22:11:58.507Z,16.63
2019-04-20T22:14:31.331Z,20.00
2019-04-20T22:17:00.049Z,19.03
2019-04-20T22:19:36.655Z,21.63
2019-04-20T22:22:07.705Z,21.40
2019-04-20T22:24:43.764Z,21.77
2019-04-20T22:27:06.339Z,16.80
2019-04-20T22:29:28.134Z,20.70
2019-04-20T22:32:03.934Z,19.27
2019-04-20T22:34:29.843Z,19.80
2019-04-20T22:36:58.476Z,20.13
2019-04-20T22:39:32.225Z,23.20
2019-04-20T22:42:04.930Z,16.07
2019-04-20T22:44:31.054Z,22.70
2019-04-20T22:47:04.157Z,18.40
2019-04-20T22:49:44.219Z,17.43
2019-04-20T22:52:18.579Z,22.33
2019-04-20T22:54:44.707Z,20.23
2019-04-20T22:57:09.374Z,20.43
2019-04-20T22:59:42.168Z,30.03
2019-04-20T23:02:04.158Z,22.83
2019-04-20T23:04:33.042Z,20.43
2019-04-20T23:07:03.009Z,18.00
2019-04-20T23:09:34.127Z,20.13
2019-04-20T23:12:09.648Z,20.53
2019-04-20T23:14:36.409Z,22.70
2019-04-20T23:22:13.565Z,17.27
2019-04-20T23:24:45.002Z,21.50
2019-04-20T23:27:20.834Z,18.93
2019-04-20T23:29:45.124Z,21.80
2019-04-20T23:32:15.935Z,21.40
2019-04-20T23:34:44.750Z,18.20
2019-04-20T23:37:17.002Z,16.80
2019-04-20T23:39:47.323Z,22.73
2019-04-20T23:42:16.117Z,25.60
2019-04-20T23:45:02.218Z,20.07
2019-04-20T23:47:54.157Z,23.43
2019-04-20T23:53:24.324Z,23.03
2019-04-20T23:55:37.138Z,21.57
2019-04-20T23:58:08.784Z,28.23
